createdAt,value
2022-08-26T00:01:07.282Z,5.55
2022-08-26T00:05:00.113Z,5.97
2022-08-26T00:08:52.616Z,5.40
2022-08-26T00:12:45.382Z,5.55
2022-08-26T00:16:41.080Z,5.60
2022-08-26T00:20:40.826Z,5.10
2022-08-26T00:24:35.340Z,5.10
2022-08-26T00:28:27.931Z,6.15
2022-08-26T00:32:20.469Z,5.90
2022-08-26T00:36:20.098Z,5.45
2022-08-26T00:40:18.544Z,5.50
2022-08-26T00:44:11.554Z,6.40
2022-08-26T00:48:06.245Z,5.50
2022-08-26T00:52:03.356Z,5.90
2022-08-26T01:00:01.219Z,5.55
2022-08-26T01:03:55.733Z,5.95
2022-08-26T01:07:48.559Z,6.00
2022-08-26T01:11:42.398Z,5.95
2022-08-26T01:15:41.850Z,4.88
2022-08-26T01:19:43.651Z,5.57
2022-08-26T01:23:41.156Z,5.82
2022-08-26T01:27:37.650Z,5.40
2022-08-26T01:31:38.669Z,5.28
2022-08-26T01:35:31.831Z,5.40
2022-08-26T01:39:24.965Z,5.45
2022-08-26T01:43:22.441Z,5.45
2022-08-26T01:47:16.364Z,6.40
2022-08-26T01:51:12.155Z,5.60
2022-08-26T01:55:06.166Z,6.00
2022-08-26T01:59:02.857Z,5.75
2022-08-26T02:03:16.517Z,6.25
2022-08-26T02:07:10.590Z,5.53
2022-08-26T02:11:04.247Z,4.97
2022-08-26T02:15:00.043Z,5.55
2022-08-26T02:18:53.938Z,5.63
2022-08-26T02:22:47.629Z,5.95
2022-08-26T02:26:40.898Z,5.93
2022-08-26T02:30:34.332Z,5.97
2022-08-26T02:34:32.250Z,5.70
2022-08-26T02:38:24.785Z,5.75
2022-08-26T02:42:17.290Z,5.78
2022-08-26T02:46:09.802Z,5.63
2022-08-26T02:50:05.439Z,7.10
2022-08-26T02:53:57.885Z,5.80
2022-08-26T02:57:50.506Z,5.43
2022-08-26T03:01:45.435Z,5.85
2022-08-26T03:05:38.083Z,5.82
2022-08-26T03:09:33.107Z,6.07
2022-08-26T03:13:25.652Z,5.50
2022-08-26T03:17:18.998Z,5.78
2022-08-26T03:21:14.972Z,6.38
2022-08-26T03:25:10.248Z,6.13
2022-08-26T03:29:21.797Z,6.10
2022-08-26T03:33:14.935Z,5.80
2022-08-26T03:37:08.003Z,6.40
2022-08-26T03:41:01.144Z,7.13
2022-08-26T03:44:53.991Z,5.90
2022-08-26T03:48:47.052Z,6.55
2022-08-26T03:52:43.654Z,6.60
2022-08-26T04:00:29.780Z,6.65
2022-08-26T04:04:22.817Z,7.47
2022-08-26T04:08:17.893Z,7.38
2022-08-26T04:12:11.027Z,7.38
2022-08-26T04:16:03.932Z,7.63
2022-08-26T04:19:56.713Z,6.45
2022-08-26T04:23:50.057Z,6.55
2022-08-26T04:27:42.720Z,6.55
2022-08-26T04:31:37.010Z,6.03
2022-08-26T04:35:29.823Z,5.75
2022-08-26T04:39:22.550Z,5.80
2022-08-26T04:43:15.550Z,5.15
2022-08-26T04:47:08.084Z,7.05
2022-08-26T04:51:01.984Z,5.10
2022-08-26T04:54:54.463Z,5.45
2022-08-26T04:58:47.625Z,5.82
2022-08-26T05:02:41.261Z,5.55
2022-08-26T05:06:35.484Z,5.85
2022-08-26T05:10:29.599Z,6.22
2022-08-26T05:14:23.370Z,4.85
2022-08-26T05:18:18.288Z,5.45
2022-08-26T05:22:13.355Z,5.32
2022-08-26T05:34:55.688Z,6.43
2022-08-26T06:05:42.107Z,6.03
2022-08-26T06:09:38.580Z,6.82
2022-08-26T06:13:31.970Z,6.93
2022-08-26T06:17:24.644Z,7.28
2022-08-26T06:21:26.846Z,6.38
2022-08-26T06:25:37.804Z,7.05
2022-08-26T06:29:33.650Z,6.45
2022-08-26T06:33:28.850Z,6.20
2022-08-26T06:37:21.580Z,6.97
2022-08-26T06:41:14.952Z,6.55
2022-08-26T06:45:08.533Z,6.25
2022-08-26T06:49:01.018Z,6.07
2022-08-26T06:52:54.482Z,6.15
2022-08-26T06:56:49.690Z,6.05
2022-08-26T07:00:42.202Z,5.57
2022-08-26T07:04:40.127Z,5.38
2022-08-26T07:08:32.759Z,5.30
2022-08-26T07:12:26.696Z,5.65
2022-08-26T07:16:19.620Z,6.22
2022-08-26T07:20:13.288Z,5.13
2022-08-26T07:24:06.139Z,5.15
2022-08-26T07:27:58.731Z,5.35
2022-08-26T07:31:51.182Z,5.10
2022-08-26T07:35:44.878Z,5.10
2022-08-26T07:39:37.836Z,4.47
2022-08-26T07:43:34.845Z,4.68
2022-08-26T07:47:27.343Z,5.20
2022-08-26T07:51:21.967Z,4.82
2022-08-26T07:55:15.036Z,4.47
2022-08-26T07:59:13.657Z,4.88
2022-08-26T08:03:07.472Z,4.38
2022-08-26T08:07:00.280Z,4.82
2022-08-26T08:10:53.005Z,4.10
2022-08-26T08:14:47.097Z,4.15
2022-08-26T08:18:40.972Z,4.20
2022-08-26T08:22:38.355Z,4.15
2022-08-26T08:26:30.859Z,3.92
2022-08-26T08:30:24.502Z,3.90
2022-08-26T08:34:17.073Z,3.75
2022-08-26T08:38:10.766Z,4.20
2022-08-26T08:42:40.089Z,3.72
2022-08-26T08:46:32.978Z,4.10
2022-08-26T08:50:42.566Z,4.18
2022-08-26T08:54:35.321Z,3.83
2022-08-26T08:58:42.425Z,4.35
2022-08-26T09:02:53.911Z,4.15
2022-08-26T09:06:48.725Z,4.78
2022-08-26T09:10:49.976Z,4.07
2022-08-26T09:14:45.762Z,4.18
2022-08-26T09:18:47.302Z,4.10
2022-08-26T09:22:40.497Z,3.78
2022-08-26T09:26:39.912Z,4.93
2022-08-26T09:30:35.532Z,3.80
2022-08-26T09:34:28.336Z,3.42
2022-08-26T09:38:27.852Z,4.30
2022-08-26T09:42:25.574Z,3.60
2022-08-26T09:46:27.965Z,4.03
2022-08-26T09:50:29.116Z,3.78
2022-08-26T09:54:30.209Z,3.92
2022-08-26T09:58:38.087Z,4.18
2022-08-26T10:02:33.738Z,4.40
2022-08-26T10:06:29.943Z,3.85
2022-08-26T10:10:27.410Z,4.28
2022-08-26T10:14:29.368Z,3.90
2022-08-26T10:18:28.782Z,3.33
2022-08-26T10:22:38.797Z,4.38
2022-08-26T10:26:48.649Z,4.10
2022-08-26T10:30:47.025Z,3.60
2022-08-26T10:34:39.779Z,3.95
2022-08-26T10:38:38.622Z,4.60
2022-08-26T10:42:50.098Z,3.85
2022-08-26T10:46:54.470Z,3.85
2022-08-26T10:50:47.907Z,3.60
2022-08-26T10:55:12.842Z,3.53
2022-08-26T10:59:19.235Z,4.20
2022-08-26T11:07:41.915Z,3.60
2022-08-26T11:11:40.279Z,3.67
2022-08-26T11:15:32.682Z,3.50
2022-08-26T11:20:01.989Z,4.18
2022-08-26T11:23:54.751Z,3.67
2022-08-26T11:27:53.089Z,3.60
2022-08-26T11:31:54.743Z,4.13
2022-08-26T11:35:49.259Z,3.60
2022-08-26T11:39:56.899Z,4.05
2022-08-26T11:43:52.562Z,3.70
2022-08-26T11:47:47.481Z,3.80
2022-08-26T11:51:45.234Z,3.67
2022-08-26T11:55:43.600Z,3.33
2022-08-26T12:03:44.637Z,3.60
2022-08-26T12:07:37.608Z,3.20
2022-08-26T12:11:36.852Z,4.10
2022-08-26T12:15:36.127Z,3.75
2022-08-26T12:19:44.796Z,3.15
2022-08-26T12:24:07.126Z,3.78
2022-08-26T12:28:06.280Z,3.05
2022-08-26T12:32:18.534Z,3.97
2022-08-26T12:36:12.080Z,3.58
2022-08-26T12:40:31.674Z,3.42
2022-08-26T12:44:53.686Z,4.05
2022-08-26T12:48:49.191Z,3.67
2022-08-26T12:53:03.884Z,3.40
2022-08-26T12:56:56.683Z,3.40
2022-08-26T13:00:52.614Z,3.83
2022-08-26T13:04:46.358Z,3.20
2022-08-26T13:08:46.040Z,3.28
2022-08-26T13:12:38.675Z,3.40
2022-08-26T13:16:31.887Z,3.42
2022-08-26T13:20:24.650Z,4.18
2022-08-26T13:24:31.759Z,3.60
2022-08-26T13:28:24.554Z,3.25
2022-08-26T13:32:18.262Z,4.03
2022-08-26T13:36:13.305Z,3.47
2022-08-26T13:40:07.936Z,3.45
2022-08-26T13:44:00.440Z,3.65
2022-08-26T13:47:53.413Z,3.75
2022-08-26T13:51:45.979Z,4.10
2022-08-26T13:55:38.542Z,3.47
2022-08-26T13:59:31.281Z,3.25
2022-08-26T14:03:24.897Z,3.65
2022-08-26T14:07:17.436Z,3.13
2022-08-26T14:11:11.020Z,4.25
2022-08-26T14:15:03.753Z,3.72
2022-08-26T14:18:56.300Z,3.33
2022-08-26T14:23:12.583Z,3.20
2022-08-26T14:27:01.485Z,3.58
2022-08-26T14:30:58.159Z,3.50
2022-08-26T14:34:51.222Z,3.83
2022-08-26T14:38:48.295Z,3.72
2022-08-26T14:42:49.518Z,3.70
2022-08-26T14:46:47.918Z,3.90
2022-08-26T14:50:40.604Z,4.00
2022-08-26T14:54:43.735Z,3.70
2022-08-26T14:58:47.717Z,3.08
2022-08-26T15:02:40.414Z,4.05
2022-08-26T15:06:34.663Z,3.47
2022-08-26T15:10:27.124Z,3.47
2022-08-26T15:14:20.491Z,3.95
2022-08-26T15:18:13.348Z,3.75
2022-08-26T15:22:05.817Z,3.95
2022-08-26T15:25:58.250Z,4.07
2022-08-26T15:29:51.869Z,3.40
2022-08-26T15:33:44.486Z,3.65
2022-08-26T15:37:37.088Z,3.90
2022-08-26T15:41:29.970Z,3.78
2022-08-26T15:45:27.793Z,4.07
2022-08-26T15:49:20.258Z,4.45
2022-08-26T15:53:13.523Z,4.28
2022-08-26T15:57:09.454Z,3.97
2022-08-26T16:01:08.863Z,3.75
2022-08-26T16:05:01.873Z,4.20
2022-08-26T16:08:56.155Z,3.88
2022-08-26T16:12:48.558Z,3.90
2022-08-26T16:16:41.236Z,4.00
2022-08-26T16:20:36.356Z,3.55
2022-08-26T16:24:30.631Z,4.55
2022-08-26T16:28:26.151Z,3.97
2022-08-26T16:32:18.931Z,4.03
2022-08-26T16:36:12.201Z,3.95
2022-08-26T16:40:06.595Z,3.90
2022-08-26T16:43:59.488Z,3.78
2022-08-26T16:47:52.860Z,3.63
2022-08-26T16:51:45.391Z,4.00
2022-08-26T16:55:38.164Z,3.70
2022-08-26T16:59:32.547Z,3.90
2022-08-26T17:03:25.156Z,3.97
2022-08-26T17:07:17.647Z,4.05
2022-08-26T17:11:10.636Z,4.22
2022-08-26T17:15:06.101Z,3.78
2022-08-26T17:18:59.869Z,4.00
2022-08-26T17:22:54.667Z,3.80
2022-08-26T17:26:47.851Z,3.67
2022-08-26T17:30:42.823Z,4.00
2022-08-26T17:34:35.601Z,4.38
2022-08-26T17:38:29.292Z,4.28
2022-08-26T17:42:21.752Z,4.18
2022-08-26T17:46:24.725Z,4.60
2022-08-26T17:50:18.543Z,4.38
2022-08-26T17:54:11.110Z,3.85
2022-08-26T17:58:08.227Z,4.60
2022-08-26T18:02:02.509Z,4.18
2022-08-26T18:05:55.230Z,4.70
2022-08-26T18:09:47.716Z,4.95
2022-08-26T18:13:47.389Z,3.63
2022-08-26T18:17:40.545Z,4.55
2022-08-26T18:21:33.287Z,4.43
2022-08-26T18:25:26.320Z,4.03
2022-08-26T18:29:19.995Z,3.78
2022-08-26T18:33:12.848Z,4.00
2022-08-26T18:37:20.717Z,4.47
2022-08-26T18:41:13.229Z,4.38
2022-08-26T18:45:07.380Z,4.20
2022-08-26T18:48:59.802Z,4.20
2022-08-26T18:52:52.383Z,4.97
2022-08-26T18:56:45.738Z,4.18
2022-08-26T19:00:38.441Z,3.95
2022-08-26T19:04:31.162Z,4.22
2022-08-26T20:02:54.960Z,5.78
2022-08-26T20:06:51.801Z,4.85
2022-08-26T20:15:11.828Z,4.75
2022-08-26T20:19:23.507Z,4.90
2022-08-26T20:23:17.367Z,5.10
2022-08-26T20:27:10.250Z,5.28
2022-08-26T20:31:03.862Z,4.63
2022-08-26T20:34:56.696Z,4.47
2022-08-26T20:38:50.654Z,4.10
2022-08-26T20:42:43.391Z,4.22
2022-08-26T20:46:36.682Z,4.47
2022-08-26T20:50:29.489Z,5.22
2022-08-26T20:54:28.196Z,4.22
2022-08-26T20:58:23.851Z,4.50
2022-08-26T21:02:19.010Z,4.00
2022-08-26T21:06:11.653Z,4.10
2022-08-26T21:10:04.412Z,4.05
2022-08-26T21:14:06.912Z,3.70
2022-08-26T21:18:10.060Z,3.80
2022-08-26T21:22:02.706Z,3.97
2022-08-26T21:25:55.946Z,4.22
2022-08-26T21:29:49.220Z,4.07
2022-08-26T21:33:45.025Z,5.07
2022-08-26T21:37:37.721Z,4.53
2022-08-26T21:41:31.190Z,5.97
2022-08-26T21:45:23.835Z,4.50
2022-08-26T21:49:16.903Z,5.32
2022-08-26T21:53:10.410Z,3.90
2022-08-26T21:57:02.984Z,4.78
2022-08-26T22:00:55.639Z,3.92
2022-08-26T22:04:49.259Z,3.92
2022-08-26T22:08:41.911Z,3.72
2022-08-26T22:12:34.618Z,3.10
2022-08-26T22:16:28.817Z,3.50
2022-08-26T22:20:21.605Z,3.25
2022-08-26T22:24:14.159Z,3.42
2022-08-26T22:28:07.466Z,3.75
2022-08-26T22:32:01.089Z,3.60
2022-08-26T22:35:54.131Z,3.78
2022-08-26T22:39:46.743Z,3.47
2022-08-26T22:43:39.759Z,3.65
2022-08-26T22:47:33.578Z,4.10
2022-08-26T22:51:28.308Z,4.07
2022-08-26T22:55:21.009Z,3.50
2022-08-26T22:59:13.972Z,4.55
2022-08-26T23:03:06.575Z,3.88
2022-08-26T23:06:59.158Z,3.47
2022-08-26T23:10:52.479Z,3.83
2022-08-26T23:14:45.010Z,4.00
2022-08-26T23:18:37.623Z,4.15
2022-08-26T23:22:31.511Z,3.65
2022-08-26T23:26:27.137Z,3.60
2022-08-26T23:30:23.489Z,4.18
2022-08-26T23:34:37.429Z,3.45
2022-08-26T23:38:31.482Z,3.40
2022-08-26T23:42:24.566Z,4.25
2022-08-26T23:46:20.928Z,3.42
2022-08-26T23:50:14.565Z,3.33
2022-08-26T23:54:07.358Z,3.42
2022-08-26T23:58:01.040Z,4.13
